Time;durP1;ratioP1;P1;durP2;ratioP2;P2;SDS_P1;SDS_P2;PMS_P1;PMS_P2;Temp;Humidity;BMP_temperature;BMP_pressure;BME280_temperature;BME280_humidity;BME280_pressure;Samples;Min_cycle;Max_cycle;Signal;HPM_P1;HPM_P2
2023/12/27 00:00:57;;;;;;;5.28;2.13;;;;;;;6.74;100.00;97958.03;5062395;28;20453;-83
2023/12/27 00:03:25;;;;;;;3.97;2.08;;;;;;;6.75;100.00;97964.91;5057840;28;20758;-82
2023/12/27 00:05:51;;;;;;;3.50;2.10;;;;;;;6.75;100.00;97975.44;5059083;28;20443;-82
2023/12/27 00:08:17;;;;;;;5.68;2.10;;;;;;;6.74;100.00;97976.44;5062338;28;20393;-83
2023/12/27 00:10:43;;;;;;;3.80;2.50;;;;;;;6.76;100.00;97971.78;5062711;28;20395;-81
2023/12/27 00:13:09;;;;;;;5.32;2.58;;;;;;;6.73;100.00;97977.47;5066997;28;20398;-81
2023/12/27 00:15:36;;;;;;;7.05;2.47;;;;;;;6.70;100.00;97967.34;5057044;28;20440;-83
2023/12/27 00:18:02;;;;;;;4.20;2.10;;;;;;;6.73;100.00;97944.06;5057027;28;20401;-80
2023/12/27 00:20:31;;;;;;;5.22;2.30;;;;;;;6.72;100.00;97937.19;5056307;28;20408;-80
2023/12/27 00:22:57;;;;;;;5.78;2.38;;;;;;;6.74;100.00;97935.16;5056531;28;20829;-80
2023/12/27 00:25:23;;;;;;;5.93;2.43;;;;;;;6.76;100.00;97941.03;5053869;28;20473;-80
2023/12/27 00:27:50;;;;;;;7.78;2.28;;;;;;;6.78;100.00;97948.69;5054366;28;20424;-80
2023/12/27 00:30:16;;;;;;;3.80;2.13;;;;;;;6.78;100.00;97956.56;5054494;28;20405;-80
2023/12/27 00:32:42;;;;;;;3.22;2.38;;;;;;;6.79;100.00;97966.91;5074714;28;20400;-83
2023/12/27 00:35:09;;;;;;;4.35;2.00;;;;;;;6.77;100.00;97966.28;5072637;28;20465;-83
2023/12/27 00:37:36;;;;;;;4.00;2.10;;;;;;;6.79;100.00;97966.09;5060997;28;20393;-84
2023/12/27 00:40:03;;;;;;;3.65;2.20;;;;;;;6.80;100.00;97957.19;5066062;28;20830;-83
2023/12/27 00:42:29;;;;;;;3.08;1.83;;;;;;;6.78;100.00;97938.97;5078019;28;20399;-83
2023/12/27 00:44:55;;;;;;;5.93;2.30;;;;;;;6.77;100.00;97939.97;5077516;28;20506;-82
2023/12/27 00:47:22;;;;;;;3.05;2.03;;;;;;;6.78;100.00;97935.53;5067866;28;20489;-83
2023/12/27 00:49:48;;;;;;;2.63;1.70;;;;;;;6.76;100.00;97938.41;5062109;28;20428;-82
2023/12/27 00:52:14;;;;;;;3.17;1.73;;;;;;;6.76;100.00;97937.59;5079364;28;20387;-82
2023/12/27 00:54:43;;;;;;;3.90;1.67;;;;;;;6.74;100.00;97937.81;5061930;28;20474;-82
2023/12/27 00:57:09;;;;;;;1.85;1.60;;;;;;;6.72;100.00;97933.75;5057795;28;20397;-82
2023/12/27 00:59:35;;;;;;;1.98;1.77;;;;;;;6.69;100.00;97944.72;5057394;28;20394;-83
2023/12/27 01:02:02;;;;;;;1.65;1.45;;;;;;;6.66;100.00;97951.19;5062374;28;20444;-83
2023/12/27 01:04:28;;;;;;;1.73;1.63;;;;;;;6.62;100.00;97955.25;5060858;28;20431;-84
2023/12/27 01:06:54;;;;;;;2.25;1.50;;;;;;;6.57;100.00;97953.28;5061893;28;20444;-83
2023/12/27 01:09:21;;;;;;;6.82;2.22;;;;;;;6.49;100.00;97942.19;5060071;28;20397;-84
2023/12/27 01:11:48;;;;;;;3.10;1.92;;;;;;;6.42;100.00;97950.13;5079385;28;20399;-84
2023/12/27 01:14:16;;;;;;;2.88;1.80;;;;;;;6.37;100.00;97957.03;5078031;28;20443;-84
2023/12/27 01:16:42;;;;;;;3.28;1.80;;;;;;;6.30;100.00;97949.19;5070861;28;20408;-84
2023/12/27 01:19:10;;;;;;;2.88;1.80;;;;;;;6.28;100.00;97953.03;5057641;28;20409;-84
2023/12/27 01:21:37;;;;;;;2.55;1.60;;;;;;;6.26;100.00;97955.84;5058271;28;20398;-83
2023/12/27 01:24:04;;;;;;;1.57;1.47;;;;;;;6.27;100.00;97956.66;5058769;28;20405;-83
2023/12/27 01:26:30;;;;;;;2.15;1.60;;;;;;;6.27;100.00;97954.03;5064663;28;20757;-84
2023/12/27 01:28:57;;;;;;;3.20;2.20;;;;;;;6.27;100.00;97957.47;5078699;28;20403;-84
2023/12/27 01:31:23;;;;;;;2.28;1.58;;;;;;;6.30;100.00;97951.00;5070623;28;20400;-84
2023/12/27 01:33:50;;;;;;;2.78;1.52;;;;;;;6.34;100.00;97952.19;5058311;28;20766;-83
2023/12/27 01:36:20;;;;;;;2.40;1.70;;;;;;;6.35;100.00;97957.25;5077641;28;20512;-84
2023/12/27 01:38:46;;;;;;;3.08;1.70;;;;;;;6.36;100.00;97953.59;5080139;28;20396;-84
2023/12/27 01:41:12;;;;;;;2.45;1.60;;;;;;;6.37;100.00;97957.03;5083058;28;20418;-84
2023/12/27 01:43:38;;;;;;;2.90;1.60;;;;;;;6.39;100.00;97955.78;5082356;28;20486;-85
2023/12/27 01:46:06;;;;;;;1.60;1.50;;;;;;;6.40;100.00;97948.72;5084222;28;20396;-84
2023/12/27 01:48:32;;;;;;;1.75;1.65;;;;;;;6.40;100.00;97953.97;5085268;28;20388;-84
2023/12/27 01:51:00;;;;;;;1.77;1.67;;;;;;;6.37;100.00;97952.59;5093216;28;20406;-84
2023/12/27 01:53:27;;;;;;;1.83;1.73;;;;;;;6.34;100.00;97944.28;5076053;28;20412;-84
2023/12/27 01:55:55;;;;;;;1.60;1.50;;;;;;;6.28;100.00;97940.69;5075541;28;20405;-85
2023/12/27 01:58:22;;;;;;;2.70;1.40;;;;;;;6.22;100.00;97944.16;5062841;28;20500;-83
2023/12/27 02:00:49;;;;;;;1.60;1.50;;;;;;;6.19;100.00;97949.81;5072242;28;20750;-83
2023/12/27 02:03:17;;;;;;;1.60;1.50;;;;;;;6.15;100.00;97956.53;5079365;28;20392;-84
2023/12/27 02:05:45;;;;;;;2.72;1.70;;;;;;;6.09;100.00;97958.16;5079059;28;20479;-84
2023/12/27 02:08:13;;;;;;;2.40;1.70;;;;;;;6.04;100.00;97965.84;5071654;28;20397;-84
2023/12/27 02:10:40;;;;;;;1.83;1.70;;;;;;;6.01;100.00;97963.66;5064865;28;20400;-85
2023/12/27 02:13:07;;;;;;;2.88;2.03;;;;;;;5.97;100.00;97956.38;5079046;28;20413;-84
2023/12/27 02:15:33;;;;;;;1.70;1.50;;;;;;;5.93;100.00;97955.19;5080921;28;20903;-84
2023/12/27 02:18:02;;;;;;;1.70;1.60;;;;;;;5.87;100.00;97948.09;5081101;28;20388;-85
2023/12/27 02:20:30;;;;;;;2.03;1.60;;;;;;;5.81;100.00;97949.72;5080647;28;20395;-84
2023/12/27 02:22:59;;;;;;;2.15;1.75;;;;;;;5.78;100.00;97947.53;5076888;28;20392;-84
2023/12/27 02:25:27;;;;;;;1.77;1.60;;;;;;;5.75;100.00;97943.50;5076711;28;20465;-84
2023/12/27 02:27:54;;;;;;;2.10;1.73;;;;;;;5.74;100.00;97944.50;5061271;28;20717;-84
2023/12/27 02:30:21;;;;;;;2.23;1.63;;;;;;;5.75;100.00;97947.94;5064450;28;20392;-84
2023/12/27 02:32:48;;;;;;;1.95;1.75;;;;;;;5.76;100.00;97947.72;5061130;28;20393;-83
2023/12/27 02:35:14;;;;;;;1.80;1.60;;;;;;;5.77;100.00;97943.28;5057535;28;20425;-84
2023/12/27 02:37:41;;;;;;;1.95;1.75;;;;;;;5.79;100.00;97949.13;5058015;28;20404;-84
2023/12/27 02:40:08;;;;;;;1.70;1.60;;;;;;;5.80;100.00;97943.66;5061775;28;20427;-84
2023/12/27 02:42:36;;;;;;;1.77;1.60;;;;;;;5.82;100.00;97940.84;5061988;28;20482;-84
2023/12/27 02:45:03;;;;;;;1.60;1.50;;;;;;;5.83;100.00;97932.75;5076576;28;20906;-84
2023/12/27 02:47:29;;;;;;;1.60;1.50;;;;;;;5.84;100.00;97947.50;5078783;28;20608;-85
2023/12/27 02:49:55;;;;;;;1.75;1.65;;;;;;;5.88;100.00;97939.22;5079970;28;20410;-84
2023/12/27 02:52:21;;;;;;;1.90;1.50;;;;;;;5.89;100.00;97927.72;5068496;28;20401;-84
2023/12/27 02:54:47;;;;;;;1.80;1.70;;;;;;;5.88;100.00;97921.66;5061056;28;20417;-83
2023/12/27 02:57:13;;;;;;;3.17;1.98;;;;;;;5.86;100.00;97928.09;5055931;28;20421;-84
2023/12/27 02:59:41;;;;;;;2.90;2.08;;;;;;;5.87;100.00;97920.00;5055852;28;20894;-83
2023/12/27 03:02:07;;;;;;;2.50;1.98;;;;;;;5.89;100.00;97927.72;5073394;28;20399;-84
2023/12/27 03:04:33;;;;;;;3.00;1.80;;;;;;;5.92;100.00;97930.75;5056379;28;20456;-83
2023/12/27 03:07:00;;;;;;;2.33;1.80;;;;;;;5.95;100.00;97924.25;5055452;28;20400;-83
2023/12/27 03:09:26;;;;;;;1.70;1.60;;;;;;;5.95;100.00;97913.72;5055327;28;20389;-84
2023/12/27 03:11:52;;;;;;;1.90;1.70;;;;;;;5.96;100.00;97915.34;5063823;28;20404;-84
2023/12/27 03:14:19;;;;;;;1.80;1.70;;;;;;;5.97;100.00;97909.09;5075180;28;20442;-83
2023/12/27 03:16:47;;;;;;;1.85;1.50;;;;;;;5.97;100.00;97911.72;5075724;28;20400;-84
2023/12/27 03:19:13;;;;;;;3.38;1.80;;;;;;;5.97;100.00;97911.72;5075290;28;20734;-83
2023/12/27 03:21:39;;;;;;;3.80;1.63;;;;;;;5.97;100.00;97907.25;5076653;28;20396;-84
2023/12/27 03:24:05;;;;;;;2.30;1.70;;;;;;;5.98;100.00;97908.88;5066429;28;20914;-83
2023/12/27 03:26:31;;;;;;;1.77;1.58;;;;;;;5.98;100.00;97903.63;5060773;28;20489;-84
2023/12/27 03:28:57;;;;;;;2.00;1.50;;;;;;;5.98;100.00;97905.44;5063489;28;20409;-84
2023/12/27 03:31:28;;;;;;;1.65;1.55;;;;;;;5.98;100.00;97895.75;5071030;28;20415;-84
2023/12/27 03:33:56;;;;;;;1.70;1.60;;;;;;;5.98;100.00;97901.00;5083583;28;20777;-85
2023/12/27 03:36:23;;;;;;;1.70;1.60;;;;;;;5.97;100.00;97898.56;5083840;28;20475;-84
2023/12/27 03:38:49;;;;;;;1.63;1.52;;;;;;;5.99;100.00;97904.44;5087071;28;20434;-84
2023/12/27 03:41:15;;;;;;;2.00;1.70;;;;;;;5.99;100.00;97902.63;5087582;28;20469;-83
2023/12/27 03:43:41;;;;;;;1.70;1.60;;;;;;;6.01;100.00;97903.22;5070091;28;20394;-83
2023/12/27 03:46:07;;;;;;;1.58;1.48;;;;;;;6.03;100.00;97897.75;5058215;28;20409;-83
2023/12/27 03:48:34;;;;;;;2.42;1.65;;;;;;;6.04;100.00;97897.53;5058224;28;20482;-83
2023/12/27 03:51:02;;;;;;;2.10;1.60;;;;;;;6.04;100.00;97900.16;5069630;28;20458;-83
2023/12/27 03:53:28;;;;;;;1.50;1.40;;;;;;;6.07;100.00;97905.00;5074752;28;20441;-83
2023/12/27 03:55:54;;;;;;;3.47;2.08;;;;;;;6.08;100.00;97906.63;5075120;28;20479;-83
2023/12/27 03:58:20;;;;;;;6.32;2.83;;;;;;;6.08;100.00;97901.38;5074669;28;20391;-83
2023/12/27 04:00:46;;;;;;;7.45;3.08;;;;;;;6.03;100.00;97892.47;5074402;28;20399;-83
2023/12/27 04:03:14;;;;;;;5.13;2.73;;;;;;;6.09;100.00;97895.06;5066189;28;20398;-83
2023/12/27 04:05:40;;;;;;;3.75;2.25;;;;;;;6.12;100.00;97893.84;5054306;28;20401;-83
2023/12/27 04:08:08;;;;;;;2.70;2.10;;;;;;;6.17;100.00;97894.03;5057597;28;20490;-83
2023/12/27 04:10:34;;;;;;;2.20;1.92;;;;;;;6.19;100.00;97889.38;5073669;28;20391;-83
2023/12/27 04:13:01;;;;;;;2.33;1.83;;;;;;;6.20;100.00;97889.16;5057654;28;20425;-83
2023/12/27 04:15:27;;;;;;;1.92;1.73;;;;;;;6.21;100.00;97882.91;5059610;28;20420;-83
2023/12/27 04:17:54;;;;;;;2.38;1.80;;;;;;;6.21;100.00;97880.28;5073770;28;20392;-83
2023/12/27 04:20:20;;;;;;;1.90;1.80;;;;;;;6.22;100.00;97889.78;5066170;28;20445;-83
2023/12/27 04:22:46;;;;;;;2.00;1.80;;;;;;;6.23;100.00;97887.94;5054020;28;20401;-83
2023/12/27 04:25:13;;;;;;;2.87;1.60;;;;;;;6.23;100.00;97882.69;5053601;28;20405;-83
2023/12/27 04:27:40;;;;;;;2.00;1.80;;;;;;;6.22;100.00;97873.19;5061610;28;20400;-83
2023/12/27 04:30:06;;;;;;;2.30;1.80;;;;;;;6.21;100.00;97861.06;5073770;28;20396;-83
2023/12/27 04:32:33;;;;;;;1.83;1.73;;;;;;;6.18;100.00;97857.03;5063971;28;20388;-83
2023/12/27 04:34:59;;;;;;;3.15;1.88;;;;;;;6.19;100.00;97852.56;5072538;28;20499;-83
2023/12/27 04:37:25;;;;;;;3.35;1.80;;;;;;;6.18;100.00;97851.75;5073884;28;20426;-83
2023/12/27 04:39:51;;;;;;;1.77;1.67;;;;;;;6.16;100.00;97845.91;5073930;28;20408;-83
2023/12/27 04:42:19;;;;;;;3.10;1.73;;;;;;;6.16;100.00;97855.63;5073453;28;20411;-83
2023/12/27 04:44:45;;;;;;;1.95;1.80;;;;;;;6.15;100.00;97854.84;5073333;28;20431;-83
2023/12/27 04:47:11;;;;;;;1.60;1.50;;;;;;;6.14;100.00;97852.41;5070596;28;20932;-83
2023/12/27 04:49:37;;;;;;;2.35;1.80;;;;;;;6.09;100.00;97860.91;5053261;28;20405;-83
2023/12/27 04:52:04;;;;;;;2.10;1.70;;;;;;;6.05;100.00;97864.19;5053419;28;20393;-83
2023/12/27 04:54:30;;;;;;;1.90;1.80;;;;;;;6.01;100.00;97863.00;5052836;28;20405;-83
2023/12/27 04:56:56;;;;;;;2.15;1.65;;;;;;;5.98;100.00;97858.97;5062590;28;20418;-83
2023/12/27 04:59:23;;;;;;;1.92;1.75;;;;;;;5.94;100.00;97856.97;5073966;28;20406;-83
2023/12/27 05:01:50;;;;;;;1.52;1.42;;;;;;;5.88;100.00;97869.09;5078591;28;20402;-84
2023/12/27 05:04:16;;;;;;;1.95;1.60;;;;;;;5.81;100.00;97863.03;5080588;28;20392;-83
2023/12/27 05:06:43;;;;;;;2.15;1.60;;;;;;;5.72;100.00;97870.34;5061585;28;20428;-83
2023/12/27 05:09:09;;;;;;;1.95;1.80;;;;;;;5.64;100.00;97869.78;5069620;28;21187;-83
2023/12/27 05:11:36;;;;;;;2.47;2.00;;;;;;;5.54;100.00;97859.72;5072631;28;20434;-83
2023/12/27 05:14:02;;;;;;;3.00;1.90;;;;;;;5.44;100.00;97868.03;5060119;28;20455;-83
2023/12/27 05:16:30;;;;;;;2.60;2.00;;;;;;;5.34;100.00;97864.19;5053221;28;20482;-83
2023/12/27 05:18:56;;;;;;;2.60;1.90;;;;;;;5.24;100.00;97862.03;5052429;28;20769;-83
2023/12/27 05:21:22;;;;;;;3.85;2.10;;;;;;;5.15;100.00;97865.06;5053493;28;20402;-83
2023/12/27 05:23:48;;;;;;;2.58;1.90;;;;;;;5.06;100.00;97856.59;5053193;28;20405;-83
2023/12/27 05:26:14;;;;;;;4.18;2.03;;;;;;;4.98;100.00;97859.44;5053463;28;20401;-83
2023/12/27 05:28:40;;;;;;;4.75;2.47;;;;;;;4.92;100.00;97861.06;5053523;28;20385;-83
2023/12/27 05:31:07;;;;;;;2.90;2.07;;;;;;;4.84;100.00;97865.69;5053115;28;20450;-83
2023/12/27 05:33:34;;;;;;;2.78;2.40;;;;;;;4.78;100.00;97863.88;5071534;28;20395;-83
2023/12/27 05:36:00;;;;;;;5.50;2.70;;;;;;;4.70;100.00;97859.66;5072876;28;20415;-83
2023/12/27 05:38:26;;;;;;;2.70;2.35;;;;;;;4.66;100.00;97861.84;5072981;28;20406;-83
2023/12/27 05:40:53;;;;;;;3.00;2.45;;;;;;;4.64;100.00;97868.34;5073888;28;20403;-83
2023/12/27 05:43:19;;;;;;;3.25;2.72;;;;;;;4.61;100.00;97866.09;5067737;28;20402;-84
2023/12/27 05:45:45;;;;;;;3.17;2.55;;;;;;;4.60;100.00;97867.09;5061368;28;20401;-84
2023/12/27 05:48:12;;;;;;;2.83;2.60;;;;;;;4.57;100.00;97868.34;5062313;28;20437;-84
2023/12/27 05:50:39;;;;;;;3.40;2.45;;;;;;;4.54;100.00;97866.09;5066959;28;20413;-84
2023/12/27 05:53:05;;;;;;;3.00;2.20;;;;;;;4.51;100.00;97863.88;5076607;28;20886;-82
2023/12/27 05:55:31;;;;;;;2.40;2.20;;;;;;;4.49;100.00;97862.47;5085912;28;20434;-82
2023/12/27 05:57:58;;;;;;;2.45;2.25;;;;;;;4.47;100.00;97848.75;5096556;28;20407;-83
2023/12/27 06:00:24;;;;;;;2.30;2.10;;;;;;;4.45;100.00;97843.69;5079188;28;20400;-81
2023/12/27 06:02:50;;;;;;;2.30;2.10;;;;;;;4.43;100.00;97837.06;5072873;28;20489;-82
2023/12/27 06:05:16;;;;;;;2.58;2.38;;;;;;;4.42;100.00;97848.56;5072084;28;20406;-82
2023/12/27 06:07:44;;;;;;;3.58;2.35;;;;;;;4.39;100.00;97849.75;5059037;28;20397;-82
2023/12/27 06:10:10;;;;;;;2.60;2.25;;;;;;;4.37;100.00;97848.31;5064536;28;20424;-83
2023/12/27 06:12:36;;;;;;;2.40;2.20;;;;;;;4.36;100.00;97846.75;5065765;28;20412;-84
2023/12/27 06:15:03;;;;;;;2.58;2.30;;;;;;;4.35;100.00;97850.38;5065312;28;20448;-83
2023/12/27 06:17:29;;;;;;;2.80;2.30;;;;;;;4.33;100.00;97855.81;5056821;28;20389;-82
2023/12/27 06:19:55;;;;;;;4.47;3.03;;;;;;;4.28;100.00;97843.28;5052220;28;20555;-82
2023/12/27 06:22:22;;;;;;;4.10;3.20;;;;;;;4.26;100.00;97834.84;5051897;28;20406;-81
2023/12/27 06:24:49;;;;;;;3.92;2.88;;;;;;;4.24;100.00;97828.97;5045903;28;20445;-80
2023/12/27 06:27:15;;;;;;;3.00;2.70;;;;;;;4.21;100.00;97824.13;5066830;28;20912;-81
2023/12/27 06:29:42;;;;;;;2.97;2.70;;;;;;;4.18;100.00;97824.53;5068992;28;20405;-79
2023/12/27 06:32:08;;;;;;;4.00;3.03;;;;;;;4.13;100.00;97808.63;5064864;28;20403;-79
2023/12/27 06:34:34;;;;;;;4.10;3.15;;;;;;;4.09;100.00;97798.72;5059222;28;20400;-80
2023/12/27 06:37:00;;;;;;;3.33;2.72;;;;;;;4.03;100.00;97804.75;5055468;28;20394;-81
2023/12/27 06:39:28;;;;;;;3.60;2.85;;;;;;;3.98;100.00;97812.41;5063544;28;20461;-81
2023/12/27 06:41:55;;;;;;;2.95;2.65;;;;;;;3.94;100.00;97822.47;5075543;28;20439;-80
2023/12/27 06:44:21;;;;;;;3.42;2.75;;;;;;;3.92;100.00;97816.63;5075321;28;20482;-81
2023/12/27 06:46:49;;;;;;;4.60;3.22;;;;;;;3.92;100.00;97816.63;5070143;28;20409;-81
2023/12/27 06:49:15;;;;;;;3.90;2.90;;;;;;;3.93;100.00;97823.47;5075736;28;20395;-80
2023/12/27 06:51:41;;;;;;;5.15;3.20;;;;;;;3.95;100.00;97831.94;5075662;28;20387;-80
2023/12/27 06:54:07;;;;;;;6.95;3.85;;;;;;;3.97;100.00;97826.50;5075679;28;20443;-81
2023/12/27 06:56:34;;;;;;;6.43;3.80;;;;;;;3.99;100.00;97819.25;5075900;28;20462;-81
2023/12/27 06:59:02;;;;;;;5.75;3.58;;;;;;;4.00;100.00;97816.44;5055839;28;20393;-80
2023/12/27 07:01:28;;;;;;;3.92;3.47;;;;;;;4.03;100.00;97808.19;5055701;28;20493;-80
2023/12/27 07:03:54;;;;;;;4.50;3.60;;;;;;;4.07;100.00;97824.31;5053338;28;20398;-81
2023/12/27 07:06:20;;;;;;;4.75;3.40;;;;;;;4.10;100.00;97819.47;5055594;28;20401;-81
2023/12/27 07:08:46;;;;;;;4.30;3.65;;;;;;;4.13;100.00;97824.34;5055170;28;20429;-81
2023/12/27 07:11:17;;;;;;;4.78;3.60;;;;;;;4.13;100.00;97824.34;5068238;28;20449;-81
2023/12/27 07:13:43;;;;;;;4.57;3.50;;;;;;;4.16;100.00;97833.59;5073886;28;20561;-81
2023/12/27 07:16:11;;;;;;;4.95;3.78;;;;;;;4.17;100.00;97833.41;5074754;28;20455;-81
2023/12/27 07:18:37;;;;;;;4.50;3.47;;;;;;;4.17;100.00;97825.53;5075610;28;20400;-80
2023/12/27 07:21:05;;;;;;;4.10;3.50;;;;;;;4.17;100.00;97824.72;5055798;28;20458;-81
2023/12/27 07:23:31;;;;;;;4.30;3.50;;;;;;;4.19;100.00;97825.34;5062159;28;20440;-81
2023/12/27 07:25:59;;;;;;;4.07;3.30;;;;;;;4.19;100.00;97820.91;5060838;28;20416;-81
2023/12/27 07:28:25;;;;;;;4.90;3.80;;;;;;;4.20;100.00;97819.91;5059325;28;20462;-81
2023/12/27 07:30:52;;;;;;;3.45;3.15;;;;;;;4.23;100.00;97821.31;5064430;28;20767;-82
2023/12/27 07:33:19;;;;;;;3.60;3.00;;;;;;;4.25;100.00;97811.44;5076876;28;20409;-81
2023/12/27 07:35:47;;;;;;;4.60;3.43;;;;;;;4.27;100.00;97818.09;5061895;28;20451;-81
2023/12/27 07:38:13;;;;;;;6.35;3.42;;;;;;;4.28;100.00;97821.53;5061011;28;20400;-81
2023/12/27 07:40:40;;;;;;;3.58;3.10;;;;;;;4.30;100.00;97832.59;5076773;28;20392;-81
2023/12/27 07:43:09;;;;;;;4.63;3.30;;;;;;;4.32;100.00;97824.53;5072264;28;20511;-82
2023/12/27 07:45:35;;;;;;;3.00;2.70;;;;;;;4.33;100.00;97831.41;5055582;28;20425;-81
2023/12/27 07:48:02;;;;;;;5.97;3.50;;;;;;;4.32;100.00;97822.72;5058924;28;20407;-82
2023/12/27 07:50:29;;;;;;;3.75;3.15;;;;;;;4.33;100.00;97826.97;5070280;28;20776;-82
2023/12/27 07:52:56;;;;;;;3.17;2.88;;;;;;;4.33;100.00;97826.16;5074759;28;20938;-81
2023/12/27 07:55:22;;;;;;;3.30;3.00;;;;;;;4.32;100.00;97838.47;5074341;28;20408;-81
2023/12/27 07:57:48;;;;;;;3.63;3.00;;;;;;;4.32;100.00;97848.13;5073930;28;20433;-82
2023/12/27 08:00:15;;;;;;;3.33;2.63;;;;;;;4.32;100.00;97843.69;5064453;28;20397;-84
2023/12/27 08:02:41;;;;;;;4.78;3.13;;;;;;;4.34;100.00;97848.75;5054502;28;20401;-82
2023/12/27 08:05:08;;;;;;;3.88;3.20;;;;;;;4.36;100.00;97850.13;5058051;28;20409;-83
2023/12/27 08:07:35;;;;;;;4.68;3.30;;;;;;;4.38;100.00;97845.50;5072705;28;20490;-83
2023/12/27 08:10:02;;;;;;;4.40;3.20;;;;;;;4.40;100.00;97837.47;5073302;28;20410;-84
2023/12/27 08:12:28;;;;;;;3.97;3.20;;;;;;;4.41;100.00;97845.13;5062030;28;20393;-84
2023/12/27 08:14:54;;;;;;;3.92;3.53;;;;;;;4.42;100.00;97838.88;5070758;28;20412;-84
2023/12/27 08:17:20;;;;;;;5.63;3.83;;;;;;;4.42;100.00;97840.69;5066868;28;20410;-84
2023/12/27 08:19:47;;;;;;;4.82;3.35;;;;;;;4.43;100.00;97844.94;5069110;28;20396;-84
2023/12/27 08:22:13;;;;;;;4.90;3.40;;;;;;;4.45;100.00;97835.84;5059317;28;20402;-84
2023/12/27 08:24:40;;;;;;;5.53;3.50;;;;;;;4.50;100.00;97838.69;5062914;28;20394;-85
2023/12/27 08:27:06;;;;;;;3.38;3.08;;;;;;;4.58;100.00;97843.72;5066695;28;20755;-84
2023/12/27 08:29:33;;;;;;;3.13;2.83;;;;;;;4.67;100.00;97842.50;5062651;28;20402;-84
2023/12/27 08:32:00;;;;;;;4.13;2.90;;;;;;;4.79;100.00;97852.41;5063382;28;20406;-85
2023/12/27 08:34:26;;;;;;;4.22;3.00;;;;;;;4.88;100.00;97851.19;5051789;28;20871;-85
2023/12/27 08:36:52;;;;;;;5.60;3.30;;;;;;;4.92;100.00;97852.38;5048309;28;20906;-85
2023/12/27 08:39:19;;;;;;;3.63;2.83;;;;;;;4.96;100.00;97849.13;5058047;28;20407;-84
2023/12/27 08:41:47;;;;;;;3.10;2.80;;;;;;;5.00;100.00;97839.84;5056930;28;20436;-84
2023/12/27 08:44:13;;;;;;;4.10;3.20;;;;;;;5.04;100.00;97838.44;5065120;28;20948;-85
2023/12/27 08:46:39;;;;;;;3.33;2.72;;;;;;;5.06;100.00;97830.34;5054256;28;20418;-84
2023/12/27 08:49:06;;;;;;;4.53;2.80;;;;;;;5.07;100.00;97829.34;5065711;28;20765;-84
2023/12/27 08:51:32;;;;;;;3.67;2.80;;;;;;;5.03;100.00;97810.59;5064534;28;20410;-83
2023/12/27 08:53:58;;;;;;;6.05;3.58;;;;;;;4.97;100.00;97810.59;5061915;28;20403;-83
2023/12/27 08:56:25;;;;;;;7.88;4.35;;;;;;;4.95;100.00;97818.69;5061922;28;20413;-84
2023/12/27 08:58:52;;;;;;;6.75;3.92;;;;;;;4.95;100.00;97805.56;5062790;28;20396;-83
2023/12/27 09:01:18;;;;;;;8.95;4.50;;;;;;;5.00;100.00;97804.94;5064413;28;20397;-83
2023/12/27 09:03:44;;;;;;;6.63;4.25;;;;;;;5.11;100.00;97796.47;5063158;28;20397;-84
2023/12/27 09:06:11;;;;;;;15.23;5.53;;;;;;;5.13;100.00;97781.28;5063558;28;20414;-84
2023/12/27 09:08:37;;;;;;;10.20;5.45;;;;;;;5.24;100.00;97785.91;5065778;28;20769;-83
2023/12/27 09:11:04;;;;;;;9.35;4.80;;;;;;;5.35;100.00;97792.31;5062578;28;20397;-83
2023/12/27 09:13:30;;;;;;;5.88;4.28;;;;;;;5.42;100.00;97796.53;5062437;28;20403;-83
2023/12/27 09:15:57;;;;;;;6.07;4.30;;;;;;;5.44;100.00;97807.63;5061327;28;20420;-84
2023/12/27 09:18:23;;;;;;;9.15;4.63;;;;;;;5.42;100.00;97798.34;5065265;28;20449;-82
2023/12/27 09:20:49;;;;;;;7.22;4.07;;;;;;;5.45;100.00;97804.00;5066599;28;20464;-83
2023/12/27 09:23:16;;;;;;;8.35;4.60;;;;;;;5.47;100.00;97803.81;5068060;28;20848;-83
2023/12/27 09:25:42;;;;;;;10.25;4.90;;;;;;;5.55;100.00;97800.13;5069902;28;20457;-83
2023/12/27 09:28:08;;;;;;;11.20;5.05;;;;;;;5.62;100.00;97790.41;5064769;28;20470;-83
2023/12/27 09:30:34;;;;;;;10.77;5.10;;;;;;;5.76;100.00;97778.81;5060883;28;20912;-84
2023/12/27 09:33:02;;;;;;;5.90;3.97;;;;;;;5.96;100.00;97782.16;5058881;28;20397;-85
2023/12/27 09:35:28;;;;;;;8.00;4.10;;;;;;;6.08;100.00;97774.41;5063723;28;20415;-85
2023/12/27 09:37:55;;;;;;;12.15;4.90;;;;;;;6.08;100.00;97772.59;5069638;28;20482;-85
2023/12/27 09:40:21;;;;;;;5.93;3.63;;;;;;;6.11;100.00;97774.78;5066591;28;20395;-84
2023/12/27 09:42:49;;;;;;;5.95;3.83;;;;;;;6.09;100.00;97776.03;5062311;28;20437;-81
2023/12/27 09:45:18;;;;;;;7.47;4.07;;;;;;;6.02;100.00;97775.25;5063044;28;20408;-82
2023/12/27 09:47:47;;;;;;;7.50;4.50;;;;;;;5.96;100.00;97771.66;5064229;28;20419;-83
2023/12/27 09:50:15;;;;;;;5.68;3.92;;;;;;;5.93;100.00;97781.78;5063270;28;20438;-82
2023/12/27 09:52:43;;;;;;;7.15;3.90;;;;;;;5.89;100.00;97783.22;5065968;28;20412;-81
2023/12/27 09:55:09;;;;;;;9.85;4.22;;;;;;;5.87;100.00;97778.13;5065774;28;20415;-81
2023/12/27 09:57:36;;;;;;;7.07;4.13;;;;;;;5.90;100.00;97769.88;5082585;28;20385;-80
2023/12/27 10:00:05;;;;;;;3.78;3.20;;;;;;;5.91;100.00;97774.13;5080614;28;20410;-80
2023/12/27 10:02:35;;;;;;;7.07;3.90;;;;;;;5.94;100.00;97773.66;5087577;28;20396;-81
2023/12/27 10:05:14;;;;;;;7.50;3.72;;;;;;;6.01;100.00;97769.22;5072923;28;20738;-81
2023/12/27 10:07:42;;;;;;;5.45;3.10;;;;;;;6.14;100.00;97755.97;5072473;28;20771;-80
2023/12/27 10:10:08;;;;;;;6.20;3.17;;;;;;;6.32;100.00;97763.09;5075369;28;20406;-80
2023/12/27 10:12:40;;;;;;;4.75;2.80;;;;;;;6.91;100.00;97746.00;5061493;28;20762;-81
2023/12/27 10:15:08;;;;;;;7.35;2.83;;;;;;;7.65;100.00;97753.59;5062511;28;20459;-81
2023/12/27 10:17:34;;;;;;;6.05;2.63;;;;;;;8.26;100.00;97725.34;5060108;28;20394;-80
2023/12/27 10:20:00;;;;;;;7.45;3.00;;;;;;;8.74;100.00;97701.38;5075244;28;20404;-80
2023/12/27 10:22:27;;;;;;;5.20;2.42;;;;;;;9.32;100.00;97680.94;5064235;28;20894;-80
2023/12/27 10:24:56;;;;;;;4.85;2.50;;;;;;;9.45;100.00;97660.56;5062706;28;20502;-80
2023/12/27 10:27:22;;;;;;;6.35;2.58;;;;;;;9.28;100.00;97649.94;5066079;28;20406;-80
2023/12/27 10:29:48;;;;;;;4.68;2.42;;;;;;;9.06;100.00;97657.72;5065030;28;20475;-79
2023/12/27 10:32:17;;;;;;;3.38;2.25;;;;;;;9.12;100.00;97645.41;5073569;28;20403;-79
2023/12/27 10:34:43;;;;;;;4.22;2.20;;;;;;;9.22;100.00;97653.53;5073059;28;20793;-79
2023/12/27 10:37:12;;;;;;;4.70;2.15;;;;;;;9.87;100.00;97653.09;5063833;28;20412;-79
2023/12/27 10:39:44;;;;;;;2.30;1.80;;;;;;;11.11;100.00;97666.78;5074121;28;20467;-79
2023/12/27 10:42:16;;;;;;;4.72;2.20;;;;;;;12.47;100.00;97669.13;5068438;28;20393;-79
2023/12/27 10:44:43;;;;;;;3.05;1.73;;;;;;;13.81;100.00;97660.34;5061800;28;20391;-81
2023/12/27 10:47:12;;;;;;;3.38;1.60;;;;;;;14.93;100.00;97642.41;5080335;28;20400;-80
2023/12/27 10:49:42;;;;;;;2.17;1.60;;;;;;;15.67;100.00;97633.50;5060173;28;20395;-82
2023/12/27 10:52:09;;;;;;;1.50;1.27;;;;;;;16.26;100.00;97633.28;5081389;28;20447;-84
2023/12/27 10:54:36;;;;;;;2.08;1.20;;;;;;;16.75;100.00;97627.75;5060467;28;20447;-79
2023/12/27 10:57:03;;;;;;;2.78;1.30;;;;;;;17.10;100.00;97615.03;5071385;28;20516;-79
2023/12/27 10:59:32;;;;;;;3.25;1.80;;;;;;;16.93;100.00;97613.63;5066165;28;20423;-79
2023/12/27 11:01:59;;;;;;;2.55;1.67;;;;;;;16.24;100.00;97614.06;5054812;28;20516;-80
2023/12/27 11:04:27;;;;;;;4.22;1.73;;;;;;;15.65;100.00;97607.09;5056118;28;20412;-79
2023/12/27 11:06:55;;;;;;;2.50;1.38;;;;;;;15.26;100.00;97609.69;5076496;28;20426;-79
2023/12/27 11:09:24;;;;;;;2.70;1.30;;;;;;;14.84;100.00;97604.84;5076104;28;20400;-80
2023/12/27 11:11:51;;;;;;;1.80;1.30;;;;;;;14.88;100.00;97605.91;5078477;28;20437;-80
2023/12/27 11:14:24;;;;;;;1.63;1.30;;;;;;;15.19;100.00;97587.88;5064237;28;20405;-81
2023/12/27 11:16:54;;;;;;;1.55;1.30;;;;;;;15.61;100.00;97592.72;5064130;28;20415;-84
2023/12/27 11:19:26;;;;;;;1.92;1.40;;;;;;;15.98;100.00;97586.00;5075427;28;20396;-83
2023/12/27 11:21:52;;;;;;;2.67;1.40;;;;;;;16.29;100.00;97597.22;5060873;28;20420;-83
2023/12/27 11:24:18;;;;;;;2.13;1.53;;;;;;;16.32;100.00;97586.75;5066564;28;20463;-83
2023/12/27 11:26:45;;;;;;;2.15;1.05;;;;;;;16.45;100.00;97590.66;5065470;28;20413;-82
2023/12/27 11:29:14;;;;;;;2.20;1.38;;;;;;;16.31;100.00;97581.72;5065455;28;20433;-83